createdAt,value
2016-12-29T00:00:20.789Z,78.93
2016-12-29T00:01:21.459Z,79.12
2016-12-29T00:02:22.137Z,78.64
2016-12-29T00:03:22.821Z,78.93
2016-12-29T00:04:23.487Z,79.12
2016-12-29T00:05:24.157Z,78.74
2016-12-29T00:06:24.835Z,78.64
2016-12-29T00:07:25.502Z,79.03
2016-12-29T00:08:26.168Z,78.64
2016-12-29T00:09:26.842Z,78.55
2016-12-29T00:10:27.502Z,78.64
2016-12-29T00:11:28.169Z,78.45
2016-12-29T00:12:28.838Z,79.03
2016-12-29T00:13:29.514Z,78.36
2016-12-29T00:14:30.210Z,78.55
2016-12-29T00:15:30.879Z,78.55
2016-12-29T00:16:31.548Z,78.74
2016-12-29T00:17:32.208Z,78.36
2016-12-29T00:18:32.871Z,78.08
2016-12-29T00:19:33.611Z,77.98
2016-12-29T00:20:34.287Z,78.08
2016-12-29T00:21:34.955Z,78.74
2016-12-29T00:22:35.629Z,78.74
2016-12-29T00:23:36.318Z,78.55
2016-12-29T00:24:36.997Z,79.22
2016-12-29T00:25:37.678Z,78.83
2016-12-29T00:26:38.352Z,78.74
2016-12-29T00:27:39.019Z,78.55
2016-12-29T00:28:39.699Z,78.55
2016-12-29T00:29:40.391Z,78.83
2016-12-29T00:30:41.059Z,78.74
2016-12-29T00:31:41.728Z,78.83
2016-12-29T00:32:42.406Z,78.74
2016-12-29T00:33:43.070Z,78.64
2016-12-29T00:34:43.755Z,78.55
2016-12-29T00:35:44.433Z,79.03
2016-12-29T00:36:45.120Z,78.64
2016-12-29T00:37:45.771Z,78.64
2016-12-29T00:38:46.438Z,78.64
2016-12-29T00:39:47.110Z,78.64
2016-12-29T00:40:47.771Z,79.41
2016-12-29T00:41:48.442Z,78.55
2016-12-29T00:42:49.119Z,78.83
2016-12-29T00:43:49.794Z,78.64
2016-12-29T00:44:50.462Z,79.22
2016-12-29T00:45:51.138Z,78.74
2016-12-29T00:46:51.798Z,78.55
2016-12-29T00:47:52.461Z,78.45
2016-12-29T00:48:53.125Z,78.45
2016-12-29T00:49:53.793Z,78.64
2016-12-29T00:50:54.452Z,78.93
2016-12-29T00:51:55.116Z,79.31
2016-12-29T00:52:55.785Z,78.74
2016-12-29T00:53:56.455Z,78.74
2016-12-29T00:54:57.122Z,79.12
2016-12-29T00:55:57.811Z,79.12
2016-12-29T00:56:58.470Z,78.64
2016-12-29T00:57:59.149Z,78.55
2016-12-29T00:58:59.820Z,78.17
2016-12-29T01:00:00.488Z,77.98
2016-12-29T01:01:01.165Z,78.45
2016-12-29T01:02:01.843Z,78.64
2016-12-29T01:03:02.513Z,79.12
2016-12-29T01:04:03.174Z,79.12
2016-12-29T01:05:03.843Z,78.93
2016-12-29T01:06:04.526Z,78.74
2016-12-29T01:07:05.208Z,78.74
2016-12-29T01:08:05.880Z,78.55
2016-12-29T01:09:06.548Z,78.83
2016-12-29T01:10:07.215Z,78.64
2016-12-29T01:11:07.877Z,78.45
2016-12-29T01:12:08.575Z,79.12
2016-12-29T01:13:09.247Z,79.03
2016-12-29T01:14:09.923Z,78.42
2016-12-29T01:15:10.615Z,78.64
2016-12-29T01:16:11.290Z,78.55
2016-12-29T01:17:11.955Z,78.55
2016-12-29T01:18:12.629Z,79.12
2016-12-29T01:19:13.303Z,79.27
2016-12-29T01:20:13.970Z,79.31
2016-12-29T01:21:14.635Z,79.12
2016-12-29T01:22:15.298Z,79.55
2016-12-29T01:23:15.983Z,79.22
2016-12-29T01:24:16.636Z,79.41
2016-12-29T01:25:17.300Z,78.74
2016-12-29T01:26:17.955Z,78.83
2016-12-29T01:27:18.600Z,79.03
2016-12-29T01:28:19.298Z,79.12
2016-12-29T01:29:19.960Z,79.12
2016-12-29T01:30:20.622Z,78.74
2016-12-29T01:31:21.294Z,78.74
2016-12-29T01:32:21.973Z,78.74
2016-12-29T01:33:22.642Z,78.55
2016-12-29T01:34:23.321Z,78.93
2016-12-29T01:35:24.013Z,79.31
2016-12-29T01:36:24.675Z,78.45
2016-12-29T01:37:25.347Z,78.74
2016-12-29T01:38:26.016Z,78.64
2016-12-29T01:39:26.675Z,79.03
2016-12-29T01:40:27.350Z,78.64
2016-12-29T01:41:28.016Z,78.17
2016-12-29T01:42:28.692Z,78.45
2016-12-29T01:43:29.371Z,78.89
2016-12-29T01:44:30.034Z,78.61
2016-12-29T01:45:30.705Z,78.55
2016-12-29T01:46:31.403Z,78.55
2016-12-29T01:47:32.056Z,78.83
2016-12-29T01:48:32.735Z,78.7
2016-12-29T01:49:33.418Z,78.61
2016-12-29T01:50:34.074Z,78.99
2016-12-29T01:51:34.750Z,78.89
2016-12-29T01:52:35.423Z,78.8
2016-12-29T01:53:36.099Z,78.32
2016-12-29T01:54:36.767Z,78.61
2016-12-29T01:55:37.438Z,78.99
2016-12-29T01:56:38.106Z,78.8
2016-12-29T01:57:38.791Z,78.89
2016-12-29T01:58:39.471Z,79.08
2016-12-29T01:59:40.132Z,78.8
2016-12-29T02:00:40.810Z,78.64
2016-12-29T02:01:41.476Z,78.7
2016-12-29T02:02:42.145Z,79.08
2016-12-29T02:03:42.821Z,78.99
2016-12-29T02:04:43.536Z,79.36
2016-12-29T02:05:44.221Z,80.13
2016-12-29T02:06:44.912Z,79.65
2016-12-29T02:07:45.568Z,79.55
2016-12-29T02:08:46.222Z,79.84
2016-12-29T02:09:46.946Z,79.55
2016-12-29T02:10:47.608Z,79.27
2016-12-29T02:11:48.269Z,79.08
2016-12-29T02:12:48.942Z,79.08
2016-12-29T02:13:49.622Z,79.17
2016-12-29T02:14:50.307Z,79.17
2016-12-29T02:15:50.981Z,79.27
2016-12-29T02:16:51.643Z,79.08
2016-12-29T02:17:52.313Z,79.65
2016-12-29T02:18:53.004Z,79.08
2016-12-29T02:19:53.682Z,78.89
2016-12-29T02:20:54.342Z,79.27
2016-12-29T02:21:54.996Z,79.27
2016-12-29T02:22:55.667Z,79.27
2016-12-29T02:23:56.332Z,79.55
2016-12-29T02:24:56.999Z,79.55
2016-12-29T02:25:57.701Z,79.55
2016-12-29T02:26:58.356Z,79.17
2016-12-29T02:27:59.055Z,79.36
2016-12-29T02:28:59.725Z,79.36
2016-12-29T02:30:00.380Z,79.08
2016-12-29T02:31:01.054Z,79.08
2016-12-29T02:32:01.728Z,79.65
2016-12-29T02:33:02.391Z,79.08
2016-12-29T02:34:03.068Z,79.74
2016-12-29T02:35:03.740Z,79.74
2016-12-29T02:36:04.422Z,79.08
2016-12-29T02:37:11.981Z,79.55
2016-12-29T02:38:12.673Z,79.46
2016-12-29T02:39:13.333Z,79.17
2016-12-29T02:40:14.002Z,79.36
2016-12-29T02:41:14.679Z,79.36
2016-12-29T02:42:15.335Z,79.17
2016-12-29T02:43:16.051Z,79.65
2016-12-29T02:44:16.708Z,79.17
2016-12-29T02:45:17.387Z,79.74
2016-12-29T02:46:18.060Z,79.65
2016-12-29T02:47:18.741Z,79.55
2016-12-29T02:48:19.411Z,79.65
2016-12-29T02:49:20.082Z,78.99
2016-12-29T02:50:20.749Z,79.27
2016-12-29T02:51:21.413Z,79.55
2016-12-29T02:52:22.108Z,79.46
2016-12-29T02:53:22.763Z,79.55
2016-12-29T02:54:23.446Z,79.65
2016-12-29T02:55:24.109Z,79.65
2016-12-29T02:56:24.767Z,79.55
2016-12-29T02:57:25.434Z,79.55
2016-12-29T02:58:26.153Z,79.74
2016-12-29T02:59:26.875Z,80.51
2016-12-29T03:00:27.557Z,80.41
2016-12-29T03:01:28.220Z,80.51
2016-12-29T03:02:28.905Z,80.51
2016-12-29T03:03:29.565Z,80.41
2016-12-29T03:04:30.235Z,80.03
2016-12-29T03:05:30.900Z,79.84
2016-12-29T03:06:31.567Z,79.94
2016-12-29T03:07:32.221Z,79.55
2016-12-29T03:08:32.886Z,80.22
2016-12-29T03:09:33.547Z,80.22
2016-12-29T03:10:34.245Z,79.74
2016-12-29T03:11:34.980Z,79.46
2016-12-29T03:12:35.669Z,79.55
2016-12-29T03:13:36.337Z,79.74
2016-12-29T03:14:37.007Z,79.36
2016-12-29T03:15:37.679Z,79.65
2016-12-29T03:16:38.351Z,79.74
2016-12-29T03:17:39.036Z,79.65
2016-12-29T03:18:39.694Z,79.55
2016-12-29T03:19:40.364Z,79.74
2016-12-29T03:20:41.048Z,79.94
2016-12-29T03:21:41.710Z,80.03
2016-12-29T03:22:42.378Z,79.65
2016-12-29T03:23:43.059Z,79.74
2016-12-29T03:24:43.718Z,80.13
2016-12-29T03:25:44.401Z,80.32
2016-12-29T03:26:45.070Z,79.74
2016-12-29T03:27:45.737Z,80.41
2016-12-29T03:28:46.422Z,80.32
2016-12-29T03:29:47.076Z,80.88
2016-12-29T03:30:47.750Z,80.51
2016-12-29T03:31:48.419Z,80.69
2016-12-29T03:32:49.102Z,80.6
2016-12-29T03:33:49.771Z,80.98
2016-12-29T03:34:50.437Z,81.26
2016-12-29T03:35:51.115Z,80.51
2016-12-29T03:36:51.791Z,80.41
2016-12-29T03:37:52.461Z,80.51
2016-12-29T03:38:53.139Z,80.51
2016-12-29T03:39:53.804Z,79.94
2016-12-29T03:40:54.478Z,80.13
2016-12-29T03:41:55.138Z,80.32
2016-12-29T03:42:55.831Z,80.22
2016-12-29T03:43:56.494Z,80.41
2016-12-29T03:44:57.166Z,80.32
2016-12-29T03:45:57.841Z,80.22
2016-12-29T03:46:58.504Z,80.69
2016-12-29T03:47:59.224Z,80.69
2016-12-29T03:48:59.916Z,80.98
2016-12-29T03:50:00.585Z,80.41
2016-12-29T03:51:01.250Z,80.6
2016-12-29T03:52:01.932Z,80.51
2016-12-29T03:53:02.624Z,80.6
2016-12-29T03:54:03.306Z,80.69
2016-12-29T03:55:03.999Z,80.79
2016-12-29T03:56:04.669Z,80.51
2016-12-29T03:57:05.337Z,80.13
2016-12-29T03:58:06.014Z,80.6
2016-12-29T03:59:06.691Z,80.88
2016-12-29T04:00:07.358Z,80.88
2016-12-29T04:01:08.049Z,81.07
2016-12-29T04:02:08.715Z,81.04
2016-12-29T04:03:09.374Z,80.56
2016-12-29T04:04:10.055Z,80.88
2016-12-29T04:05:10.728Z,80.13
2016-12-29T04:06:11.396Z,80.51
2016-12-29T04:07:12.074Z,80.27
2016-12-29T04:08:12.765Z,80.18
2016-12-29T04:09:13.446Z,80.08
2016-12-29T04:10:14.129Z,80.08
2016-12-29T04:11:14.807Z,80.08
2016-12-29T04:12:15.480Z,80.18
2016-12-29T04:13:16.149Z,80.65
2016-12-29T04:14:16.824Z,80.75
2016-12-29T04:15:17.515Z,80.65
2016-12-29T04:16:18.181Z,80.37
2016-12-29T04:17:18.845Z,80.18
2016-12-29T04:18:19.529Z,80.18
2016-12-29T04:19:20.213Z,80.46
2016-12-29T04:20:20.889Z,80.18
2016-12-29T04:21:21.598Z,80.37
2016-12-29T04:22:22.269Z,80.18
2016-12-29T04:23:22.942Z,80.27
2016-12-29T04:24:23.617Z,80.37
2016-12-29T04:25:24.288Z,80.65
2016-12-29T04:26:24.959Z,80.75
2016-12-29T04:27:25.636Z,80.94
2016-12-29T04:28:26.310Z,80.84
2016-12-29T04:29:26.968Z,80.27
2016-12-29T04:30:27.646Z,80.84
2016-12-29T04:31:28.319Z,81.04
2016-12-29T04:32:28.991Z,81.23
2016-12-29T04:33:29.656Z,80.56
2016-12-29T04:34:30.334Z,80.65
2016-12-29T04:35:31.008Z,80.65
2016-12-29T04:36:31.671Z,81.13
2016-12-29T04:37:32.327Z,81.04
2016-12-29T04:38:33.005Z,80.84
2016-12-29T04:39:33.690Z,80.84
2016-12-29T04:40:34.374Z,80.84
2016-12-29T04:41:35.043Z,81.13
2016-12-29T04:42:35.715Z,81.13
2016-12-29T04:43:36.378Z,81.23
2016-12-29T04:44:37.059Z,80.84
2016-12-29T04:45:37.746Z,80.65
2016-12-29T04:46:38.406Z,80.18
2016-12-29T04:47:39.086Z,80.37
2016-12-29T04:48:39.748Z,80.46
2016-12-29T04:49:40.422Z,80.65
2016-12-29T04:50:41.080Z,80.94
2016-12-29T04:51:41.758Z,80.18
2016-12-29T04:52:42.442Z,80.37
2016-12-29T04:53:43.102Z,80.37
2016-12-29T04:54:43.768Z,80.46
2016-12-29T04:55:44.442Z,80.27
2016-12-29T04:56:45.113Z,80.65
2016-12-29T04:57:45.789Z,81.32
2016-12-29T04:58:46.473Z,81.04
2016-12-29T04:59:47.182Z,80.94
2016-12-29T05:00:47.876Z,81.04
2016-12-29T05:01:48.585Z,81.13
2016-12-29T05:02:49.266Z,81.23
2016-12-29T05:03:49.933Z,81.04
2016-12-29T05:04:50.610Z,80.84
2016-12-29T05:05:51.276Z,80.84
2016-12-29T05:06:51.988Z,81.04
2016-12-29T05:07:52.680Z,81.04
2016-12-29T05:08:53.390Z,80.56
2016-12-29T05:09:54.055Z,81.04
2016-12-29T05:10:54.719Z,80.56
2016-12-29T05:11:55.424Z,80.84
2016-12-29T05:12:56.101Z,80.84
2016-12-29T05:13:56.772Z,81.13
2016-12-29T05:14:57.436Z,80.94
2016-12-29T05:15:58.103Z,80.94
2016-12-29T05:16:58.779Z,80.84
2016-12-29T05:17:59.434Z,81.32
2016-12-29T05:19:00.101Z,81.41
2016-12-29T05:20:00.780Z,81.41
2016-12-29T05:21:01.447Z,81.41
2016-12-29T05:22:02.115Z,81.51
2016-12-29T05:23:02.798Z,81.23
2016-12-29T05:24:03.468Z,81.79
2016-12-29T05:25:04.142Z,81.41
2016-12-29T05:26:04.823Z,81.32
2016-12-29T05:27:05.493Z,81.41
2016-12-29T05:28:06.152Z,81.13
2016-12-29T05:29:06.827Z,81.32
2016-12-29T05:30:07.502Z,81.41
2016-12-29T05:31:08.182Z,81.41
2016-12-29T05:32:08.847Z,80.75
2016-12-29T05:33:09.534Z,81.6
2016-12-29T05:34:10.214Z,81.32
2016-12-29T05:35:10.874Z,81.13
2016-12-29T05:36:11.530Z,81.41
2016-12-29T05:37:12.206Z,81.51
2016-12-29T05:38:12.882Z,80.84
2016-12-29T05:39:13.555Z,81.13
2016-12-29T05:40:14.233Z,81.32
2016-12-29T05:41:14.900Z,80.94
2016-12-29T05:42:15.561Z,81.32
2016-12-29T05:43:16.229Z,80.46
2016-12-29T05:44:16.898Z,80.94
2016-12-29T05:45:17.572Z,81.41
2016-12-29T05:46:18.246Z,81.04
2016-12-29T05:47:18.925Z,81.23
2016-12-29T05:48:19.596Z,80.94
2016-12-29T05:49:20.297Z,80.94
2016-12-29T05:50:20.945Z,81.04
2016-12-29T05:51:21.610Z,81.41
2016-12-29T05:52:22.309Z,81.41
2016-12-29T05:53:22.967Z,81.32
2016-12-29T05:54:23.641Z,81.51
2016-12-29T05:55:24.308Z,81.18
2016-12-29T05:56:24.998Z,81.09
2016-12-29T05:57:25.667Z,81.47
2016-12-29T05:58:26.337Z,80.99
2016-12-29T05:59:27.012Z,81.18
2016-12-29T06:00:27.673Z,81.32
2016-12-29T06:01:28.358Z,81.75
2016-12-29T06:02:29.022Z,81.09
2016-12-29T06:03:29.702Z,81.27
2016-12-29T06:04:30.361Z,80.99
2016-12-29T06:05:31.045Z,80.9
2016-12-29T06:06:31.713Z,81.13
2016-12-29T06:07:32.383Z,81.41
2016-12-29T06:08:33.052Z,81.41
2016-12-29T06:09:33.732Z,81.51
2016-12-29T06:10:34.398Z,80.84
2016-12-29T06:11:35.075Z,80.65
2016-12-29T06:12:35.750Z,80.94
2016-12-29T06:13:36.436Z,81.23
2016-12-29T06:14:37.089Z,81.41
2016-12-29T06:15:37.751Z,81.32
2016-12-29T06:16:38.423Z,81.23
2016-12-29T06:17:39.090Z,81.32
2016-12-29T06:18:39.779Z,80.84
2016-12-29T06:19:40.449Z,81.6
2016-12-29T06:20:41.156Z,81.23
2016-12-29T06:21:41.852Z,81.6
2016-12-29T06:22:42.537Z,81.51
2016-12-29T06:23:43.203Z,81.13
2016-12-29T06:24:43.868Z,81.51
2016-12-29T06:25:44.526Z,81.23
2016-12-29T06:26:45.206Z,81.09
2016-12-29T06:27:45.875Z,81.41
2016-12-29T06:28:46.551Z,81.04
2016-12-29T06:29:47.207Z,80.56
2016-12-29T06:30:47.879Z,81.23
2016-12-29T06:31:48.581Z,80.84
2016-12-29T06:32:49.248Z,80.84
2016-12-29T06:33:49.919Z,80.65
2016-12-29T06:34:50.606Z,81.13
2016-12-29T06:35:51.269Z,81.09
2016-12-29T06:36:51.938Z,80.8
2016-12-29T06:37:52.616Z,80.52
2016-12-29T06:38:53.269Z,80.52
2016-12-29T06:39:53.920Z,80.52
2016-12-29T06:40:54.575Z,80.33
2016-12-29T06:41:55.237Z,80.43
2016-12-29T06:42:55.925Z,80.52
2016-12-29T06:43:56.592Z,80.33
2016-12-29T06:44:57.267Z,80.62
2016-12-29T06:45:57.949Z,80.8
2016-12-29T06:46:58.655Z,80.99
2016-12-29T06:47:59.324Z,80.8
2016-12-29T06:48:59.998Z,81.09
2016-12-29T06:50:00.686Z,80.71
2016-12-29T06:51:01.368Z,80.33
2016-12-29T06:52:02.036Z,80.62
2016-12-29T06:53:02.690Z,81.18
2016-12-29T06:54:03.355Z,80.9
2016-12-29T06:55:04.025Z,81.09
2016-12-29T06:56:04.702Z,81.18
2016-12-29T06:57:05.495Z,81.47
2016-12-29T06:58:06.174Z,81.18
2016-12-29T06:59:06.869Z,81.18
2016-12-29T07:00:07.550Z,81.47
2016-12-29T07:01:08.276Z,81.47
2016-12-29T07:02:08.944Z,81.47
2016-12-29T07:03:09.622Z,81.18
2016-12-29T07:04:10.302Z,81.94
2016-12-29T07:05:10.956Z,81.94
2016-12-29T07:06:11.627Z,82.23
2016-12-29T07:07:12.286Z,81.75
2016-12-29T07:08:12.930Z,82.32
2016-12-29T07:09:13.622Z,82.23
2016-12-29T07:10:14.316Z,82.13
2016-12-29T07:11:14.997Z,82.32
2016-12-29T07:12:15.678Z,82.6
2016-12-29T07:13:16.329Z,82.98
2016-12-29T07:14:17.001Z,83.17
2016-12-29T07:15:17.699Z,83.46
2016-12-29T07:16:18.438Z,83.55
2016-12-29T07:17:19.134Z,84.03
2016-12-29T07:18:19.811Z,83.94
2016-12-29T07:19:20.481Z,84.03
2016-12-29T07:20:21.145Z,84.31
2016-12-29T07:21:21.818Z,83.94
2016-12-29T07:22:22.489Z,84.12
2016-12-29T07:23:23.162Z,84.12
2016-12-29T07:24:23.849Z,84.41
2016-12-29T07:25:24.500Z,84.41
2016-12-29T07:26:25.177Z,85.17
2016-12-29T07:27:25.851Z,86.02
2016-12-29T07:28:26.547Z,85.26
2016-12-29T07:29:27.226Z,84.98
2016-12-29T07:30:27.917Z,83.74
2016-12-29T07:31:28.600Z,82.89
2016-12-29T07:32:29.280Z,82.98
2016-12-29T07:33:29.938Z,83.46
2016-12-29T07:34:30.622Z,83.08
2016-12-29T07:35:31.284Z,83.36
2016-12-29T07:36:31.953Z,83.46
2016-12-29T07:37:32.633Z,83.94
2016-12-29T07:38:33.346Z,84.31
2016-12-29T07:39:34.035Z,84.88
2016-12-29T07:40:34.693Z,84.78
2016-12-29T07:41:35.384Z,84.78
2016-12-29T07:42:36.049Z,84.98
2016-12-29T07:43:36.721Z,85.03
2016-12-29T07:44:37.388Z,84.84
2016-12-29T07:45:38.058Z,85.13
2016-12-29T07:46:38.747Z,84.94
2016-12-29T07:47:39.400Z,85.13
2016-12-29T07:48:40.086Z,85.31
2016-12-29T07:49:40.763Z,84.74
2016-12-29T07:50:41.424Z,85.13
2016-12-29T07:51:42.096Z,85.69
2016-12-29T07:52:42.768Z,85.22
2016-12-29T07:53:43.440Z,85.13
2016-12-29T07:54:44.126Z,85.97
2016-12-29T07:55:44.782Z,85.6
2016-12-29T07:56:45.480Z,85.69
2016-12-29T07:57:46.158Z,85.03
2016-12-29T07:58:46.825Z,85.6
2016-12-29T07:59:47.501Z,85.78
2016-12-29T08:00:48.153Z,85.78
2016-12-29T08:01:48.816Z,85.78
2016-12-29T08:02:49.487Z,85.88
2016-12-29T08:03:50.168Z,85.41
2016-12-29T08:04:50.852Z,85.69
2016-12-29T08:05:51.524Z,86.16
2016-12-29T08:06:52.191Z,86.35
2016-12-29T08:07:52.862Z,86.16
2016-12-29T08:08:53.532Z,85.97
2016-12-29T08:09:54.214Z,85.97
2016-12-29T08:10:54.884Z,85.97
2016-12-29T08:11:55.759Z,85.41
2016-12-29T08:12:56.419Z,85.69
2016-12-29T08:13:57.091Z,85.88
2016-12-29T08:14:57.778Z,85.97
2016-12-29T08:15:58.445Z,85.88
2016-12-29T08:16:59.121Z,85.97
2016-12-29T08:17:59.798Z,85.97
2016-12-29T08:19:00.472Z,86.16
2016-12-29T08:20:01.124Z,86.45
2016-12-29T08:21:01.819Z,86.26
2016-12-29T08:22:02.480Z,86.26
2016-12-29T08:23:03.168Z,85.97
2016-12-29T08:24:03.838Z,85.97
2016-12-29T08:25:04.502Z,86.07
2016-12-29T08:26:05.174Z,86.16
2016-12-29T08:27:06.212Z,85.88
2016-12-29T08:28:08.028Z,86.35
2016-12-29T08:29:08.725Z,85.88
2016-12-29T08:30:09.416Z,85.69
2016-12-29T08:31:10.083Z,85.6
2016-12-29T08:32:10.738Z,85.88
2016-12-29T08:33:11.417Z,86.07
2016-12-29T08:34:12.093Z,86.26
2016-12-29T08:35:13.147Z,85.97
2016-12-29T08:36:13.806Z,85.88
2016-12-29T08:37:14.477Z,85.97
2016-12-29T08:38:15.140Z,85.78
2016-12-29T08:39:15.809Z,85.22
2016-12-29T08:40:16.519Z,85.41
2016-12-29T08:41:17.192Z,85.78
2016-12-29T08:42:17.873Z,86.02
2016-12-29T08:43:18.548Z,86.02
2016-12-29T08:44:20.391Z,86.02
2016-12-29T08:45:21.078Z,85.64
2016-12-29T08:46:21.740Z,85.17
2016-12-29T08:47:23.222Z,85.17
2016-12-29T08:48:24.480Z,84.78
2016-12-29T08:49:25.143Z,84.69
2016-12-29T08:50:25.818Z,84.5
2016-12-29T08:51:26.929Z,84.69
2016-12-29T08:52:27.672Z,85.17
2016-12-29T08:53:29.091Z,85.07
2016-12-29T08:54:29.808Z,84.69
2016-12-29T08:55:30.521Z,84.69
2016-12-29T08:56:31.188Z,84.59
2016-12-29T08:57:32.464Z,85.26
2016-12-29T08:58:33.571Z,85.07
2016-12-29T08:59:34.227Z,85.36
2016-12-29T09:00:34.898Z,85.36
2016-12-29T09:01:35.576Z,85.26
2016-12-29T09:02:36.255Z,85.07
2016-12-29T09:03:37.175Z,85.17
2016-12-29T09:04:38.626Z,85.17
2016-12-29T09:05:39.310Z,85.17
2016-12-29T09:06:39.997Z,84.69
2016-12-29T09:07:40.696Z,84.69
2016-12-29T09:08:41.351Z,84.78
2016-12-29T09:09:42.031Z,84.5
2016-12-29T09:10:42.699Z,84.78
2016-12-29T09:11:43.374Z,84.41
2016-12-29T09:12:44.061Z,84.5
2016-12-29T09:13:44.744Z,84.59
2016-12-29T09:14:45.420Z,84.69
2016-12-29T09:15:46.102Z,84.98
2016-12-29T09:16:46.755Z,84.5
2016-12-29T09:17:47.436Z,84.98
2016-12-29T09:18:48.188Z,84.98
2016-12-29T09:19:48.869Z,84.69
2016-12-29T09:20:49.532Z,84.78
2016-12-29T09:21:50.207Z,84.78
2016-12-29T09:22:50.880Z,85.17
2016-12-29T09:23:51.561Z,84.88
2016-12-29T09:24:52.237Z,84.69
2016-12-29T09:25:52.913Z,84.5
2016-12-29T09:26:53.611Z,84.69
2016-12-29T09:27:54.296Z,84.78
2016-12-29T09:28:54.960Z,84.88
2016-12-29T09:29:55.643Z,84.88
2016-12-29T09:30:56.400Z,84.69
2016-12-29T09:31:57.143Z,84.69
2016-12-29T09:32:57.819Z,84.59
2016-12-29T09:33:58.484Z,84.88
2016-12-29T09:34:59.179Z,84.69
2016-12-29T09:35:59.864Z,84.88
2016-12-29T09:37:00.528Z,84.78
2016-12-29T09:38:01.193Z,84.88
2016-12-29T09:39:01.864Z,85.17
2016-12-29T09:40:02.527Z,84.69
2016-12-29T09:41:03.210Z,85.17
2016-12-29T09:42:03.874Z,84.78
2016-12-29T09:43:04.541Z,84.5
2016-12-29T09:44:05.222Z,84.69
2016-12-29T09:45:05.933Z,84.69
2016-12-29T09:46:06.620Z,84.98
2016-12-29T09:47:07.311Z,85.17
2016-12-29T09:48:07.974Z,84.88
2016-12-29T09:49:08.636Z,84.78
2016-12-29T09:50:09.341Z,84.88
2016-12-29T09:51:10.021Z,84.78
2016-12-29T09:52:10.687Z,84.22
2016-12-29T09:53:11.374Z,84.88
2016-12-29T09:54:12.046Z,84.5
2016-12-29T09:55:12.710Z,84.31
2016-12-29T09:56:13.393Z,84.5
2016-12-29T09:57:14.074Z,84.69
2016-12-29T09:58:14.757Z,84.5
2016-12-29T09:59:15.412Z,84.59
2016-12-29T10:00:16.093Z,84.59
2016-12-29T10:01:16.769Z,85.07
2016-12-29T10:02:17.426Z,84.59
2016-12-29T10:03:18.100Z,84.31
2016-12-29T10:04:18.780Z,84.03
2016-12-29T10:05:19.447Z,83.84
2016-12-29T10:06:20.123Z,84.03
2016-12-29T10:07:20.794Z,83.55
2016-12-29T10:08:21.470Z,83.55
2016-12-29T10:09:22.143Z,83.74
2016-12-29T10:10:22.809Z,83.74
2016-12-29T10:11:23.496Z,84.22
2016-12-29T10:12:24.180Z,84.22
2016-12-29T10:13:24.843Z,84.41
2016-12-29T10:14:25.528Z,84.03
2016-12-29T10:15:26.232Z,83.94
2016-12-29T10:16:26.905Z,83.84
2016-12-29T10:17:27.578Z,83.84
2016-12-29T10:18:28.238Z,83.84
2016-12-29T10:19:28.918Z,83.74
2016-12-29T10:20:29.584Z,84.12
2016-12-29T10:21:30.274Z,83.65
2016-12-29T10:22:30.967Z,84.12
2016-12-29T10:23:31.628Z,83.84
2016-12-29T10:24:32.283Z,83.55
2016-12-29T10:25:32.949Z,84.12
2016-12-29T10:26:33.614Z,83.74
2016-12-29T10:27:34.291Z,83.94
2016-12-29T10:28:34.963Z,83.74
2016-12-29T10:29:35.628Z,83.46
2016-12-29T10:30:36.296Z,83.08
2016-12-29T10:31:37.073Z,83.55
2016-12-29T10:32:37.748Z,83.08
2016-12-29T10:33:38.445Z,83.55
2016-12-29T10:34:39.108Z,83.65
2016-12-29T10:35:39.780Z,83.55
2016-12-29T10:36:40.450Z,83.55
2016-12-29T10:37:41.120Z,83.27
2016-12-29T10:38:41.811Z,83.46
2016-12-29T10:39:42.474Z,83.27
2016-12-29T10:40:43.157Z,83.46
2016-12-29T10:41:43.828Z,82.98
2016-12-29T10:42:44.493Z,83.46
2016-12-29T10:43:45.164Z,82.6
2016-12-29T10:44:45.833Z,82.89
2016-12-29T10:45:46.493Z,82.89
2016-12-29T10:46:47.173Z,82.42
2016-12-29T10:47:47.852Z,82.42
2016-12-29T10:48:48.637Z,83.08
2016-12-29T10:49:49.337Z,83.08
2016-12-29T10:50:50.060Z,82.98
2016-12-29T10:51:50.745Z,82.98
2016-12-29T10:52:51.413Z,82.6
2016-12-29T10:53:52.093Z,82.7
2016-12-29T10:54:52.757Z,82.89
2016-12-29T10:55:53.466Z,82.36
2016-12-29T10:56:54.162Z,82.42
2016-12-29T10:57:54.834Z,82.32
2016-12-29T10:58:55.500Z,82.32
2016-12-29T10:59:56.196Z,81.98
2016-12-29T11:00:56.862Z,81.75
2016-12-29T11:01:57.532Z,82.04
2016-12-29T11:02:58.209Z,81.56
2016-12-29T11:03:58.880Z,81.66
2016-12-29T11:04:59.542Z,81.75
2016-12-29T11:06:00.204Z,81.18
2016-12-29T11:07:00.884Z,81.18
2016-12-29T11:08:01.841Z,81.41
2016-12-29T11:09:04.477Z,81.23
2016-12-29T11:10:05.217Z,81.41
2016-12-29T11:11:06.033Z,81.09
2016-12-29T11:12:06.988Z,81.23
2016-12-29T11:13:07.979Z,81.23
2016-12-29T11:14:08.678Z,80.9
2016-12-29T11:15:09.334Z,80.94
2016-12-29T11:16:10.087Z,81.18
2016-12-29T11:17:10.821Z,81.13
2016-12-29T11:18:11.515Z,80.94
2016-12-29T11:19:12.239Z,80.9
2016-12-29T11:20:12.947Z,80.65
2016-12-29T11:21:13.788Z,80.52
2016-12-29T11:22:14.664Z,80.52
2016-12-29T11:23:15.500Z,80.56
2016-12-29T11:24:16.100Z,80.56
2016-12-29T11:25:16.761Z,80.56
2016-12-29T11:26:17.450Z,80.84
2016-12-29T11:27:18.104Z,80.52
2016-12-29T11:28:18.785Z,80.46
2016-12-29T11:29:19.453Z,80.75
2016-12-29T11:30:20.143Z,80.52
2016-12-29T11:31:20.836Z,80.71
2016-12-29T11:32:21.505Z,80.9
2016-12-29T11:33:22.192Z,81.23
2016-12-29T11:34:22.856Z,80.84
2016-12-29T11:35:23.530Z,80.84
2016-12-29T11:36:24.208Z,81.13
2016-12-29T11:37:25.152Z,81.32
2016-12-29T11:38:25.834Z,81.51
2016-12-29T11:39:26.514Z,81.32
2016-12-29T11:40:27.171Z,81.32
2016-12-29T11:41:27.839Z,81.04
2016-12-29T11:42:28.519Z,81.7
2016-12-29T11:43:29.183Z,80.84
2016-12-29T11:44:29.905Z,80.65
2016-12-29T11:45:30.585Z,80.65
2016-12-29T11:46:31.282Z,80.65
2016-12-29T11:47:31.947Z,80.94
2016-12-29T11:48:32.667Z,81.04
2016-12-29T11:49:33.372Z,80.94
2016-12-29T11:50:34.032Z,81.04
2016-12-29T11:51:34.727Z,81.04
2016-12-29T11:52:35.403Z,81.04
2016-12-29T11:53:36.166Z,80.94
2016-12-29T11:54:36.837Z,80.65
2016-12-29T11:55:37.519Z,81.13
2016-12-29T11:56:38.196Z,80.84
2016-12-29T11:57:38.896Z,81.04
2016-12-29T11:58:39.585Z,80.56
2016-12-29T11:59:40.257Z,80.08
2016-12-29T12:00:40.943Z,79.8
2016-12-29T12:01:41.596Z,80.08
2016-12-29T12:02:42.253Z,80.27
2016-12-29T12:03:42.932Z,79.8
2016-12-29T12:04:43.632Z,79.71
2016-12-29T12:05:44.302Z,79.99
2016-12-29T12:06:44.992Z,80.08
2016-12-29T12:07:45.688Z,79.9
2016-12-29T12:08:46.368Z,79.99
2016-12-29T12:09:47.032Z,79.8
2016-12-29T12:10:47.695Z,79.9
2016-12-29T12:11:48.385Z,79.61
2016-12-29T12:12:49.067Z,79.71
2016-12-29T12:13:49.774Z,79.71
2016-12-29T12:14:50.435Z,79.52
2016-12-29T12:15:51.155Z,79.42
2016-12-29T12:16:51.838Z,79.52
2016-12-29T12:17:52.510Z,79.61
2016-12-29T12:18:53.171Z,79.52
2016-12-29T12:19:53.846Z,79.42
2016-12-29T12:20:54.516Z,79.52
2016-12-29T12:21:55.187Z,79.52
2016-12-29T12:22:55.863Z,79.71
2016-12-29T12:23:56.551Z,79.9
2016-12-29T12:24:57.258Z,79.71
2016-12-29T12:25:57.924Z,79.33
2016-12-29T12:26:58.594Z,79.04
2016-12-29T12:27:59.276Z,79.71
2016-12-29T12:28:59.952Z,79.61
2016-12-29T12:30:00.644Z,79.14
2016-12-29T12:31:01.348Z,79.42
2016-12-29T12:32:02.079Z,79.8
2016-12-29T12:33:02.715Z,79.99
2016-12-29T12:34:03.396Z,79.99
2016-12-29T12:35:04.067Z,79.99
2016-12-29T12:36:04.753Z,79.8
2016-12-29T12:37:05.458Z,79.99
2016-12-29T12:38:06.123Z,79.71
2016-12-29T12:39:06.785Z,79.71
2016-12-29T12:40:07.475Z,79.71
2016-12-29T12:41:08.202Z,80.18
2016-12-29T12:42:08.856Z,79.99
2016-12-29T12:43:09.541Z,80.37
2016-12-29T12:44:10.195Z,79.9
2016-12-29T12:45:10.847Z,80.08
2016-12-29T12:46:11.507Z,80.27
2016-12-29T12:47:12.157Z,80.18
2016-12-29T12:48:12.850Z,80.18
2016-12-29T12:49:13.515Z,80.08
2016-12-29T12:50:14.219Z,79.99
2016-12-29T12:51:14.892Z,80.27
2016-12-29T12:52:15.567Z,80.46
2016-12-29T12:53:16.241Z,79.99
2016-12-29T12:54:16.924Z,80.37
2016-12-29T12:55:17.599Z,79.71
2016-12-29T12:56:18.266Z,79.99
2016-12-29T12:57:18.948Z,79.99
2016-12-29T12:58:19.612Z,79.71
2016-12-29T12:59:20.284Z,79.52
2016-12-29T13:00:20.957Z,79.71
2016-12-29T13:01:21.620Z,79.61
2016-12-29T13:02:22.285Z,79.23
2016-12-29T13:03:22.953Z,79.71